Time;durP1;ratioP1;P1;durP2;ratioP2;P2;SDS_P1;SDS_P2;PMS_P1;PMS_P2;Temp;Humidity;BMP_temperature;BMP_pressure;BME280_temperature;BME280_humidity;BME280_pressure;Samples;Min_cycle;Max_cycle;Signal;HPM_P1;HPM_P2
2021/08/03 00:02:23;;;;;;;5.67;4.00;;;14.90;99.90;;;;;;5076478;28;20473;-83
2021/08/03 00:04:53;;;;;;;5.20;4.33;;;14.70;99.90;;;;;;5075839;28;20766;-83
2021/08/03 00:07:19;;;;;;;4.87;3.97;;;14.90;99.90;;;;;;5075796;28;20405;-84
2021/08/03 00:09:46;;;;;;;4.47;4.07;;;14.70;99.90;;;;;;5075572;28;20426;-84
2021/08/03 00:12:14;;;;;;;4.80;4.30;;;14.40;99.90;;;;;;5075988;28;20178;-84
2021/08/03 00:14:44;;;;;;;7.80;4.90;;;14.50;99.90;;;;;;5076028;28;20878;-84
2021/08/03 00:17:12;;;;;;;4.20;3.90;;;14.60;99.90;;;;;;5075984;28;20408;-82
2021/08/03 00:19:39;;;;;;;4.47;4.07;;;14.60;99.90;;;;;;5075966;28;20507;-83
2021/08/03 00:22:05;;;;;;;4.80;4.27;;;14.60;99.90;;;;;;5075944;28;20800;-84
2021/08/03 00:24:32;;;;;;;8.53;4.53;;;14.50;99.90;;;;;;5075740;28;20405;-83
2021/08/03 00:26:57;;;;;;;15.50;4.20;;;14.40;99.90;;;;;;5075813;28;20398;-84
2021/08/03 00:29:23;;;;;;;4.40;4.00;;;14.30;99.90;;;;;;5075608;28;20405;-83
2021/08/03 00:31:50;;;;;;;5.07;4.57;;;14.40;99.90;;;;;;5077962;28;20167;-83
2021/08/03 00:34:16;;;;;;;5.40;4.20;;;14.40;99.90;;;;;;5060594;28;20194;-82
2021/08/03 00:36:41;;;;;;;7.20;4.23;;;14.60;99.90;;;;;;5077988;28;20452;-82
2021/08/03 00:39:07;;;;;;;3.90;3.60;;;14.60;99.90;;;;;;5076427;28;20156;-83
2021/08/03 00:41:41;;;;;;;5.77;4.57;;;14.60;99.90;;;;;;5076292;28;20156;-83
2021/08/03 00:44:06;;;;;;;5.60;3.33;;;14.40;99.90;;;;;;5076150;28;20183;-82
2021/08/03 00:46:32;;;;;;;4.40;3.63;;;14.50;99.90;;;;;;5076037;28;20393;-83
2021/08/03 00:48:57;;;;;;;3.67;3.37;;;14.70;99.90;;;;;;5076125;28;20187;-83
2021/08/03 00:51:23;;;;;;;5.83;4.00;;;14.80;99.90;;;;;;5037442;28;20672;-83
2021/08/03 00:53:49;;;;;;;3.97;3.57;;;14.90;99.90;;;;;;5037438;28;20177;-83
2021/08/03 00:56:14;;;;;;;9.23;4.40;;;14.90;99.90;;;;;;5036778;28;20243;-83
2021/08/03 00:58:40;;;;;;;4.70;3.80;;;14.80;99.90;;;;;;5038152;28;20161;-83
2021/08/03 01:01:06;;;;;;;4.43;4.03;;;14.80;99.90;;;;;;5039002;28;20203;-83
2021/08/03 01:03:32;;;;;;;4.03;3.63;;;14.30;99.90;;;;;;5037964;28;20183;-83
2021/08/03 01:06:20;;;;;;;5.33;4.00;;;14.20;99.90;;;;;;5040191;28;20490;-79
2021/08/03 01:09:06;;;;;;;4.50;4.10;;;14.30;99.90;;;;;;5039061;28;20220;-83
2021/08/03 01:11:54;;;;;;;7.77;3.90;;;14.40;99.90;;;;;;5036791;28;20469;-83
2021/08/03 01:14:32;;;;;;;4.27;3.87;;;14.30;99.90;;;;;;5036740;28;20430;-83
2021/08/03 01:17:11;;;;;;;5.10;3.97;;;14.30;99.90;;;;;;5036399;28;20409;-82
2021/08/03 01:20:06;;;;;;;7.10;4.10;;;14.00;99.90;;;;;;5036682;28;20572;-83
2021/08/03 01:22:56;;;;;;;4.23;3.87;;;14.10;99.90;;;;;;5049558;28;20406;-84
2021/08/03 01:25:46;;;;;;;11.73;4.40;;;14.10;99.90;;;;;;5058657;28;20449;-83
2021/08/03 01:28:21;;;;;;;11.00;5.27;;;14.40;99.90;;;;;;5058462;28;20491;-84
2021/08/03 01:30:54;;;;;;;6.20;5.70;;;14.50;99.90;;;;;;5058538;28;20493;-84
2021/08/03 01:33:23;;;;;;;7.53;4.67;;;14.40;99.90;;;;;;5058282;28;20860;-83
2021/08/03 01:35:50;;;;;;;5.57;4.77;;;14.40;99.90;;;;;;5058456;28;20442;-83
2021/08/03 01:38:20;;;;;;;6.73;4.13;;;14.60;99.90;;;;;;5058682;28;20487;-84
2021/08/03 01:40:48;;;;;;;13.77;4.20;;;14.50;99.90;;;;;;5057263;28;20478;-83
2021/08/03 01:43:14;;;;;;;6.23;3.87;;;14.10;99.90;;;;;;5058473;28;20840;-82
2021/08/03 01:45:41;;;;;;;5.40;3.87;;;14.30;99.90;;;;;;5058079;28;20430;-84
2021/08/03 01:48:08;;;;;;;4.03;3.60;;;14.40;99.90;;;;;;5058003;28;20486;-83
2021/08/03 01:50:34;;;;;;;3.90;3.50;;;14.20;99.90;;;;;;5057959;28;20403;-83
2021/08/03 01:53:01;;;;;;;7.70;3.30;;;14.00;99.90;;;;;;5057931;28;20412;-83
2021/08/03 01:55:28;;;;;;;5.43;4.70;;;14.00;99.90;;;;;;5057788;28;20639;-83
2021/08/03 01:57:55;;;;;;;4.37;4.07;;;14.20;99.90;;;;;;5061039;28;20391;-82
2021/08/03 02:00:20;;;;;;;6.40;3.93;;;14.30;99.90;;;;;;5063380;28;20399;-83
2021/08/03 02:02:47;;;;;;;9.10;3.40;;;14.40;99.90;;;;;;5066367;28;20501;-83
2021/08/03 02:05:14;;;;;;;3.80;3.43;;;14.20;99.90;;;;;;5067268;28;20168;-81
2021/08/03 02:07:40;;;;;;;7.87;4.10;;;13.90;99.90;;;;;;5059697;28;20405;-84
2021/08/03 02:10:06;;;;;;;7.27;3.97;;;13.90;99.90;;;;;;5058365;28;20403;-83
2021/08/03 02:12:34;;;;;;;6.73;4.13;;;13.90;99.90;;;;;;5058019;28;20399;-84
2021/08/03 02:15:00;;;;;;;3.90;3.60;;;13.80;99.90;;;;;;5057694;28;20277;-83
2021/08/03 02:17:25;;;;;;;9.17;5.40;;;13.80;99.90;;;;;;5057933;28;20887;-83
2021/08/03 02:19:51;;;;;;;9.33;4.10;;;14.00;99.90;;;;;;5039071;28;20219;-83
2021/08/03 02:22:18;;;;;;;4.20;3.80;;;14.00;99.90;;;;;;5056150;28;20160;-83
2021/08/03 02:24:46;;;;;;;3.90;3.50;;;14.00;99.90;;;;;;5058088;28;20168;-83
2021/08/03 02:27:12;;;;;;;5.53;4.00;;;13.90;99.90;;;;;;5057034;28;20399;-83
2021/08/03 02:29:44;;;;;;;4.63;4.20;;;14.00;99.90;;;;;;5057260;28;20410;-83
2021/08/03 02:32:33;;;;;;;5.73;4.13;;;14.00;99.90;;;;;;5057357;28;20583;-83
2021/08/03 02:35:20;;;;;;;4.20;3.80;;;13.90;99.90;;;;;;5057094;28;20488;-83
2021/08/03 02:37:54;;;;;;;4.77;4.07;;;13.90;99.90;;;;;;5057013;28;20418;-83
2021/08/03 02:40:21;;;;;;;3.60;3.30;;;13.90;99.90;;;;;;5057133;28;20414;-83
2021/08/03 02:42:48;;;;;;;3.70;3.40;;;14.00;99.90;;;;;;5056789;28;20826;-83
2021/08/03 02:45:17;;;;;;;6.27;4.00;;;14.10;99.90;;;;;;5057002;28;20402;-84
2021/08/03 02:47:49;;;;;;;3.97;3.57;;;14.40;99.90;;;;;;5057188;28;20453;-84
2021/08/03 02:50:16;;;;;;;6.40;4.30;;;14.40;99.90;;;;;;5057131;28;20748;-83
2021/08/03 02:52:46;;;;;;;3.87;3.57;;;14.20;99.90;;;;;;5055954;28;20398;-84
2021/08/03 02:55:21;;;;;;;4.77;3.27;;;14.20;99.90;;;;;;5057163;28;20442;-83
2021/08/03 02:57:51;;;;;;;8.87;3.50;;;14.30;99.90;;;;;;5057336;28;20394;-83
2021/08/03 03:00:18;;;;;;;5.20;3.90;;;13.90;99.90;;;;;;5055754;28;20482;-83
2021/08/03 03:02:44;;;;;;;3.97;3.33;;;13.90;99.90;;;;;;5056806;28;20437;-84
2021/08/03 03:05:18;;;;;;;4.50;4.10;;;14.00;99.90;;;;;;5057033;28;20429;-82
2021/08/03 03:07:50;;;;;;;5.30;4.33;;;13.90;99.90;;;;;;5055754;28;20414;-84
2021/08/03 03:10:22;;;;;;;3.70;3.40;;;13.80;99.90;;;;;;5056179;28;20814;-83
2021/08/03 03:12:52;;;;;;;6.23;3.93;;;13.90;99.90;;;;;;5056263;28;20488;-83
2021/08/03 03:15:19;;;;;;;4.00;3.60;;;13.80;99.90;;;;;;5056361;28;20958;-83
2021/08/03 03:17:45;;;;;;;5.27;3.90;;;13.90;99.90;;;;;;5056455;28;20395;-83
2021/08/03 03:20:12;;;;;;;11.33;4.40;;;14.00;99.90;;;;;;5065709;28;20791;-83
2021/08/03 03:22:43;;;;;;;5.10;4.00;;;13.90;99.90;;;;;;5076358;28;20397;-83
2021/08/03 03:25:12;;;;;;;3.63;3.33;;;13.80;99.90;;;;;;5076235;28;20412;-83
2021/08/03 03:27:38;;;;;;;5.67;3.77;;;13.60;99.90;;;;;;5076352;28;20401;-83
2021/08/03 03:30:04;;;;;;;4.73;4.33;;;13.60;99.90;;;;;;5075890;28;20401;-83
2021/08/03 03:32:31;;;;;;;5.43;4.33;;;13.50;99.90;;;;;;5076015;28;20401;-83
2021/08/03 03:34:58;;;;;;;9.53;4.50;;;13.80;99.90;;;;;;5040976;28;20510;-82
2021/08/03 03:37:28;;;;;;;3.97;3.57;;;13.60;99.90;;;;;;5076338;28;20498;-83
2021/08/03 03:39:56;;;;;;;4.17;3.33;;;13.70;99.90;;;;;;5076176;28;20547;-83
2021/08/03 03:42:25;;;;;;;4.13;3.83;;;13.60;99.90;;;;;;5076194;28;20400;-83
2021/08/03 03:44:51;;;;;;;4.97;4.30;;;13.80;99.90;;;;;;5076713;28;20398;-80
2021/08/03 03:47:19;;;;;;;15.03;4.97;;;13.90;99.90;;;;;;5076297;28;20930;-83
2021/08/03 03:49:51;;;;;;;4.20;3.87;;;14.00;99.90;;;;;;5076610;28;20567;-83
2021/08/03 03:52:20;;;;;;;4.77;4.37;;;14.00;99.90;;;;;;5076488;28;20486;-83
2021/08/03 03:54:48;;;;;;;9.03;4.50;;;13.90;99.90;;;;;;5075909;28;20517;-83
2021/08/03 03:57:16;;;;;;;6.93;4.90;;;14.00;99.90;;;;;;5058324;28;20394;-83
2021/08/03 03:59:45;;;;;;;5.87;4.20;;;14.10;99.90;;;;;;5076454;28;20413;-83
2021/08/03 04:02:13;;;;;;;6.37;4.23;;;13.80;99.90;;;;;;5076619;28;20401;-85
2021/08/03 04:04:40;;;;;;;4.50;3.43;;;13.70;99.90;;;;;;5076935;28;20394;-82
2021/08/03 04:07:05;;;;;;;3.70;3.40;;;13.80;99.90;;;;;;5075989;28;20398;-82
2021/08/03 04:09:31;;;;;;;7.97;4.10;;;14.00;99.90;;;;;;5075566;28;20440;-83
2021/08/03 04:11:57;;;;;;;5.10;4.63;;;14.10;99.90;;;;;;5075639;28;20156;-83
2021/08/03 04:14:25;;;;;;;4.90;4.27;;;14.00;99.90;;;;;;5075471;28;20172;-83
2021/08/03 04:16:52;;;;;;;4.27;3.87;;;13.80;99.90;;;;;;5075737;28;20199;-83
2021/08/03 04:19:18;;;;;;;6.70;4.07;;;14.00;99.90;;;;;;5075339;28;20484;-83
2021/08/03 04:21:45;;;;;;;4.77;4.37;;;14.00;99.90;;;;;;5076907;28;20432;-80
2021/08/03 04:24:13;;;;;;;3.87;3.57;;;14.30;99.90;;;;;;5084892;28;20155;-80
2021/08/03 04:26:39;;;;;;;5.63;3.57;;;13.90;99.90;;;;;;5088445;28;20390;-80
2021/08/03 04:29:04;;;;;;;5.53;5.00;;;14.10;99.90;;;;;;5088743;28;20393;-79
2021/08/03 04:31:30;;;;;;;7.10;3.93;;;14.00;99.90;;;;;;5089273;28;20389;-79
2021/08/03 04:33:56;;;;;;;4.40;4.00;;;14.00;99.90;;;;;;5089422;28;20289;-79
2021/08/03 04:36:21;;;;;;;5.67;5.03;;;14.20;99.90;;;;;;5089420;28;20602;-80
2021/08/03 04:38:48;;;;;;;3.73;3.43;;;14.00;99.90;;;;;;5089111;28;20156;-80
2021/08/03 04:41:13;;;;;;;4.00;3.70;;;13.90;99.90;;;;;;5089002;28;20171;-80
2021/08/03 04:43:42;;;;;;;6.43;4.10;;;14.00;99.90;;;;;;5082575;28;20855;-82
2021/08/03 04:46:08;;;;;;;4.83;3.70;;;14.20;99.90;;;;;;5061192;28;20164;-82
2021/08/03 04:48:33;;;;;;;4.90;4.50;;;14.20;99.90;;;;;;5078414;28;20886;-83
2021/08/03 04:50:59;;;;;;;4.37;4.07;;;14.40;99.90;;;;;;5078910;28;20410;-82
2021/08/03 04:53:24;;;;;;;4.80;3.60;;;14.00;99.90;;;;;;5078316;28;20163;-82
2021/08/03 04:55:50;;;;;;;5.10;4.60;;;14.20;99.90;;;;;;5078588;28;20292;-82
2021/08/03 04:58:16;;;;;;;4.97;4.13;;;14.40;99.90;;;;;;5078776;28;20159;-83
2021/08/03 05:00:41;;;;;;;5.47;3.80;;;14.60;99.90;;;;;;5061295;28;20160;-82
2021/08/03 05:03:07;;;;;;;6.30;4.47;;;14.30;99.90;;;;;;5078625;28;20160;-82
2021/08/03 05:05:33;;;;;;;3.60;3.30;;;14.20;99.90;;;;;;5078645;28;20190;-83
2021/08/03 05:08:00;;;;;;;4.17;3.77;;;14.50;99.90;;;;;;5078909;28;20845;-83
2021/08/03 05:10:27;;;;;;;4.50;4.07;;;14.20;99.90;;;;;;5077962;28;20159;-82
2021/08/03 05:12:53;;;;;;;4.20;3.67;;;14.00;99.90;;;;;;5078440;28;20410;-83
2021/08/03 05:15:19;;;;;;;3.10;2.90;;;14.10;99.90;;;;;;5078437;28;20456;-83
2021/08/03 05:17:44;;;;;;;3.70;3.40;;;14.30;99.90;;;;;;5060700;28;20171;-82
2021/08/03 05:20:11;;;;;;;3.93;3.63;;;14.40;99.90;;;;;;5078305;28;20223;-82
2021/08/03 05:22:37;;;;;;;3.70;3.40;;;14.60;99.90;;;;;;5078561;28;20163;-82
2021/08/03 05:25:03;;;;;;;5.60;4.07;;;14.60;99.90;;;;;;5078239;28;20428;-83
2021/08/03 05:27:29;;;;;;;4.23;3.90;;;14.80;99.90;;;;;;5078772;28;20587;-82
2021/08/03 05:29:55;;;;;;;7.67;3.57;;;14.90;99.90;;;;;;5078348;28;20486;-82
2021/08/03 05:32:21;;;;;;;5.00;4.10;;;15.00;99.90;;;;;;5081793;28;20405;-83
2021/08/03 05:34:47;;;;;;;5.37;3.80;;;15.30;99.90;;;;;;5081267;28;20187;-83
2021/08/03 05:37:12;;;;;;;5.23;3.97;;;15.40;99.90;;;;;;5080107;28;20155;-84
2021/08/03 05:39:38;;;;;;;4.07;3.77;;;15.20;99.90;;;;;;5081171;28;20170;-84
2021/08/03 05:42:04;;;;;;;5.33;3.57;;;15.40;99.90;;;;;;5091205;28;20159;-82
2021/08/03 05:44:30;;;;;;;5.33;3.80;;;15.10;99.90;;;;;;5090234;28;20199;-85
2021/08/03 05:46:57;;;;;;;4.80;3.73;;;15.00;99.90;;;;;;5075580;28;20429;-83
2021/08/03 05:49:23;;;;;;;6.30;3.87;;;15.00;99.90;;;;;;5080234;28;20172;-84
2021/08/03 05:51:48;;;;;;;5.53;4.03;;;15.20;99.90;;;;;;5079783;28;20414;-84
2021/08/03 05:54:14;;;;;;;8.70;3.67;;;15.00;99.90;;;;;;5080415;28;20168;-84
2021/08/03 05:56:41;;;;;;;3.30;3.00;;;15.10;99.90;;;;;;5079692;28;20167;-85
2021/08/03 05:59:06;;;;;;;4.30;3.77;;;15.10;99.90;;;;;;5082894;28;20215;-81
2021/08/03 06:01:32;;;;;;;4.50;4.20;;;15.10;99.90;;;;;;5086578;28;20967;-82
2021/08/03 06:03:57;;;;;;;6.33;4.30;;;15.10;99.90;;;;;;5081562;28;20160;-83
2021/08/03 06:06:25;;;;;;;4.27;3.70;;;15.00;99.90;;;;;;5082941;28;20197;-83
2021/08/03 06:08:51;;;;;;;4.17;3.80;;;15.50;99.90;;;;;;5094409;28;20209;-81
2021/08/03 06:11:23;;;;;;;7.60;4.17;;;15.30;99.90;;;;;;5093015;28;20386;-81
2021/08/03 06:13:53;;;;;;;5.00;3.93;;;15.60;99.90;;;;;;5074875;28;20177;-84
2021/08/03 06:16:20;;;;;;;6.63;4.10;;;15.60;99.90;;;;;;5087058;28;20453;-82
2021/08/03 06:18:47;;;;;;;3.60;3.30;;;15.30;99.90;;;;;;5070806;28;20413;-81
2021/08/03 06:21:14;;;;;;;3.80;3.50;;;15.20;99.90;;;;;;5088008;28;20484;-85
2021/08/03 06:23:43;;;;;;;5.00;4.60;;;15.40;99.90;;;;;;5097454;28;20412;-84
2021/08/03 06:26:09;;;;;;;12.20;4.37;;;15.30;99.90;;;;;;5097480;28;20512;-84
2021/08/03 06:28:35;;;;;;;4.73;4.33;;;15.30;99.90;;;;;;5098933;28;20507;-84
2021/08/03 06:31:02;;;;;;;8.80;4.07;;;15.60;99.90;;;;;;5081233;28;20175;-84
2021/08/03 06:33:37;;;;;;;7.60;4.53;;;15.70;99.90;;;;;;5074938;28;20426;-84
2021/08/03 06:36:03;;;;;;;3.90;3.60;;;15.70;99.90;;;;;;5078667;28;20471;-84
2021/08/03 06:38:29;;;;;;;8.97;4.57;;;15.70;99.90;;;;;;5079505;28;20422;-84
2021/08/03 06:41:03;;;;;;;4.33;3.93;;;15.80;99.90;;;;;;5098017;28;20167;-84
2021/08/03 06:43:31;;;;;;;4.27;3.87;;;15.70;99.90;;;;;;5079675;28;20171;-84
2021/08/03 06:46:06;;;;;;;4.47;4.03;;;15.70;99.90;;;;;;5081238;28;20442;-84
2021/08/03 06:48:37;;;;;;;4.70;4.20;;;15.90;99.90;;;;;;5089751;28;20420;-84
2021/08/03 06:51:07;;;;;;;7.60;4.10;;;16.00;99.90;;;;;;5099283;28;20499;-84
2021/08/03 06:53:36;;;;;;;4.90;3.97;;;16.30;99.90;;;;;;5093220;28;20418;-84
2021/08/03 06:56:03;;;;;;;4.93;3.60;;;16.30;99.90;;;;;;5090386;28;20482;-83
2021/08/03 06:59:05;;;;;;;5.10;4.60;;;16.20;99.90;;;;;;5097963;28;20512;-83
2021/08/03 07:01:52;;;;;;;7.40;3.77;;;16.30;99.90;;;;;;5076491;28;20925;-83
2021/08/03 07:04:21;;;;;;;4.90;4.33;;;16.80;99.90;;;;;;5092079;28;20905;-83
2021/08/03 07:06:53;;;;;;;3.73;3.50;;;16.50;99.90;;;;;;5083376;28;20433;-84
2021/08/03 07:09:19;;;;;;;5.27;4.77;;;16.60;99.90;;;;;;5095370;28;20739;-83
2021/08/03 07:11:46;;;;;;;5.13;3.60;;;16.70;99.90;;;;;;5061602;28;20435;-83
2021/08/03 07:14:12;;;;;;;4.53;4.10;;;16.60;99.90;;;;;;5074180;28;20416;-83
2021/08/03 07:16:40;;;;;;;4.50;3.70;;;16.30;99.90;;;;;;5094157;28;20453;-84
2021/08/03 07:19:08;;;;;;;4.27;3.83;;;16.70;99.90;;;;;;5080693;28;20444;-83
2021/08/03 07:21:37;;;;;;;4.20;3.80;;;16.60;99.90;;;;;;5095976;28;20949;-84
2021/08/03 07:24:11;;;;;;;4.07;3.77;;;16.70;99.90;;;;;;5098556;28;20397;-84
2021/08/03 07:26:36;;;;;;;4.00;3.70;;;16.50;99.90;;;;;;5078595;28;20413;-83
2021/08/03 07:29:02;;;;;;;4.33;3.73;;;16.70;99.90;;;;;;5079679;28;20419;-84
2021/08/03 07:31:27;;;;;;;5.10;4.53;;;16.70;99.90;;;;;;5098133;28;20193;-84
2021/08/03 07:33:53;;;;;;;4.40;4.00;;;16.80;99.90;;;;;;5076588;28;20174;-84
2021/08/03 07:36:18;;;;;;;7.43;3.80;;;17.10;99.90;;;;;;5071362;28;20251;-84
2021/08/03 07:38:46;;;;;;;4.23;3.83;;;17.20;99.90;;;;;;5091350;28;20171;-84
2021/08/03 07:41:12;;;;;;;3.63;3.33;;;17.20;99.90;;;;;;5100606;28;20170;-82
2021/08/03 07:43:37;;;;;;;3.40;3.10;;;17.40;99.90;;;;;;5095190;28;20419;-81
2021/08/03 07:46:03;;;;;;;4.40;4.00;;;17.50;99.90;;;;;;5090338;28;20186;-84
2021/08/03 07:48:28;;;;;;;4.60;4.20;;;17.80;99.90;;;;;;5095194;28;20259;-84
2021/08/03 07:50:55;;;;;;;3.87;3.57;;;17.40;99.90;;;;;;5080624;28;20204;-84
2021/08/03 07:53:20;;;;;;;7.27;3.67;;;17.30;99.90;;;;;;5080381;28;20183;-84
2021/08/03 07:55:46;;;;;;;4.07;3.70;;;17.50;99.90;;;;;;5071290;28;20456;-84
2021/08/03 07:58:11;;;;;;;3.93;3.47;;;17.80;99.90;;;;;;5098751;28;20170;-84
2021/08/03 08:00:37;;;;;;;5.83;4.43;;;17.70;99.90;;;;;;5088134;28;20172;-83
2021/08/03 08:03:02;;;;;;;4.47;3.80;;;17.50;99.90;;;;;;5102671;28;20166;-84
2021/08/03 08:05:28;;;;;;;6.23;5.37;;;17.70;99.90;;;;;;5102286;28;20185;-81
2021/08/03 08:07:58;;;;;;;6.47;5.80;;;17.60;99.90;;;;;;5094045;28;20207;-84
2021/08/03 08:10:24;;;;;;;5.00;4.47;;;17.50;99.90;;;;;;5098162;28;20600;-84
2021/08/03 08:12:50;;;;;;;3.67;3.23;;;17.70;99.90;;;;;;5098078;28;20507;-84
2021/08/03 08:15:15;;;;;;;4.07;3.77;;;18.10;99.90;;;;;;5084013;28;20536;-84
2021/08/03 08:17:41;;;;;;;4.73;4.13;;;17.90;99.90;;;;;;5102389;28;20177;-84
2021/08/03 08:20:12;;;;;;;4.47;3.70;;;17.90;99.90;;;;;;5075305;28;20224;-83
2021/08/03 08:22:39;;;;;;;4.50;4.10;;;18.00;99.90;;;;;;5083266;28;20178;-84
2021/08/03 08:25:09;;;;;;;3.63;3.33;;;18.10;99.90;;;;;;5092761;28;20523;-84
2021/08/03 08:27:35;;;;;;;4.17;3.87;;;18.30;99.90;;;;;;5102489;28;20401;-84
2021/08/03 08:30:02;;;;;;;5.73;4.40;;;18.50;99.90;;;;;;5098764;28;20499;-84
2021/08/03 08:32:28;;;;;;;3.47;3.17;;;18.10;99.90;;;;;;5102195;28;20705;-83
2021/08/03 08:34:54;;;;;;;3.80;3.50;;;18.50;99.90;;;;;;5062898;28;20444;-85
2021/08/03 08:37:19;;;;;;;4.03;3.00;;;18.60;99.90;;;;;;5085933;28;20224;-84
2021/08/03 08:40:06;;;;;;;6.30;4.00;;;18.60;99.90;;;;;;5078299;28;20180;-84
2021/08/03 08:42:33;;;;;;;5.70;3.10;;;18.30;99.90;;;;;;5062391;28;20428;-84
2021/08/03 08:45:00;;;;;;;3.90;3.10;;;18.50;99.90;;;;;;5078329;28;20437;-84
2021/08/03 08:47:27;;;;;;;4.23;3.40;;;18.80;99.90;;;;;;5077745;28;20447;-84
2021/08/03 08:49:53;;;;;;;3.50;3.20;;;18.80;99.90;;;;;;5049910;28;20497;-85
2021/08/03 08:52:18;;;;;;;3.13;2.93;;;19.00;99.90;;;;;;5069614;28;20498;-84
2021/08/03 08:54:44;;;;;;;3.57;3.27;;;19.30;99.90;;;;;;5039732;28;20544;-85
2021/08/03 08:57:10;;;;;;;7.83;3.53;;;19.20;99.90;;;;;;5075962;28;20198;-85
2021/08/03 08:59:36;;;;;;;4.20;3.90;;;19.20;99.90;;;;;;5064362;28;20183;-84
2021/08/03 09:02:03;;;;;;;3.23;2.93;;;19.10;99.90;;;;;;5058435;28;20179;-85
2021/08/03 09:04:28;;;;;;;3.37;3.07;;;19.40;99.90;;;;;;5072916;28;20421;-84
2021/08/03 09:07:06;;;;;;;2.90;2.70;;;19.20;99.90;;;;;;5072692;28;20444;-83
2021/08/03 09:09:41;;;;;;;4.30;3.93;;;19.20;99.90;;;;;;5089203;28;20194;-82
2021/08/03 09:12:07;;;;;;;2.87;2.50;;;18.80;99.90;;;;;;5099668;28;20425;-83
2021/08/03 09:14:36;;;;;;;5.40;3.73;;;19.00;99.90;;;;;;5094762;28;20429;-84
2021/08/03 09:17:02;;;;;;;3.93;2.87;;;19.20;99.90;;;;;;5080763;28;20751;-84
2021/08/03 09:19:37;;;;;;;3.23;2.93;;;19.50;99.90;;;;;;5097926;28;20554;-84
2021/08/03 09:22:28;;;;;;;3.93;3.30;;;19.60;99.90;;;;;;5099639;28;20492;-83
2021/08/03 09:25:13;;;;;;;3.40;2.97;;;19.80;99.90;;;;;;5096370;28;20416;-82
2021/08/03 09:27:43;;;;;;;2.97;2.70;;;20.00;99.90;;;;;;5102600;28;20455;-85
2021/08/03 09:30:27;;;;;;;3.40;3.10;;;20.30;99.90;;;;;;5100942;28;20420;-84
2021/08/03 09:32:53;;;;;;;3.00;2.67;;;20.50;99.90;;;;;;5069987;28;20432;-84
2021/08/03 09:35:22;;;;;;;3.43;3.00;;;20.90;99.90;;;;;;5093544;28;20460;-84
2021/08/03 09:37:49;;;;;;;3.77;2.30;;;20.60;99.90;;;;;;5083297;28;20183;-83
2021/08/03 09:40:20;;;;;;;2.77;2.57;;;20.70;99.90;;;;;;5101924;28;20446;-85
2021/08/03 09:43:00;;;;;;;2.20;2.10;;;20.90;99.90;;;;;;5099563;28;20452;-85
2021/08/03 09:45:28;;;;;;;3.37;2.70;;;20.90;99.90;;;;;;5096312;28;20877;-84
2021/08/03 09:48:06;;;;;;;3.47;3.17;;;21.20;99.90;;;;;;5071117;28;20428;-85
2021/08/03 09:50:58;;;;;;;3.37;3.17;;;20.60;99.90;;;;;;5065267;28;20924;-84
2021/08/03 09:53:43;;;;;;;3.60;3.07;;;21.20;99.90;;;;;;5091805;28;20499;-84
2021/08/03 09:56:12;;;;;;;2.97;2.67;;;20.90;99.90;;;;;;5084355;28;20453;-84
2021/08/03 09:58:50;;;;;;;3.17;2.03;;;20.70;99.90;;;;;;5057627;28;20433;-85
2021/08/03 10:01:33;;;;;;;2.23;2.00;;;20.70;99.90;;;;;;5083260;28;20444;-85
2021/08/03 10:04:02;;;;;;;2.00;1.90;;;20.90;99.90;;;;;;5080578;28;20551;-84
2021/08/03 10:06:28;;;;;;;2.47;2.27;;;21.10;99.90;;;;;;5094978;28;20425;-84
2021/08/03 10:08:54;;;;;;;3.03;2.03;;;21.30;99.90;;;;;;5078533;28;20456;-83
2021/08/03 10:11:21;;;;;;;2.77;2.30;;;21.50;99.90;;;;;;5071287;28;20335;-84
2021/08/03 10:13:47;;;;;;;2.70;2.50;;;21.10;99.90;;;;;;5082325;28;20473;-84
2021/08/03 10:16:14;;;;;;;3.43;2.80;;;20.70;99.90;;;;;;5075522;28;21013;-84
2021/08/03 10:18:41;;;;;;;3.63;2.83;;;21.40;99.90;;;;;;5079769;28;20445;-84
2021/08/03 10:21:15;;;;;;;5.30;3.27;;;21.20;99.90;;;;;;5087669;28;20594;-84
2021/08/03 10:23:43;;;;;;;3.27;2.97;;;21.30;99.90;;;;;;5098168;28;20452;-84
2021/08/03 10:26:13;;;;;;;1.83;1.73;;;21.20;99.90;;;;;;5098872;28;20424;-84
2021/08/03 10:28:39;;;;;;;2.37;2.17;;;21.20;99.90;;;;;;5057904;28;20417;-85
2021/08/03 10:31:25;;;;;;;2.20;2.10;;;21.10;99.90;;;;;;5079984;28;20429;-84
2021/08/03 10:33:50;;;;;;;6.10;2.70;;;21.40;99.90;;;;;;5096790;28;20792;-84
2021/08/03 10:36:44;;;;;;;2.60;2.40;;;21.80;99.90;;;;;;5101645;28;20444;-84
2021/08/03 10:39:13;;;;;;;8.83;2.17;;;22.00;99.90;;;;;;5085081;28;20167;-85
2021/08/03 10:42:08;;;;;;;4.00;2.80;;;22.00;99.90;;;;;;5073365;28;20434;-83
2021/08/03 10:44:39;;;;;;;1.93;1.83;;;22.20;99.90;;;;;;5095883;28;20427;-84
2021/08/03 10:47:42;;;;;;;5.53;2.37;;;21.70;99.90;;;;;;5087484;28;20551;-84
2021/08/03 10:50:13;;;;;;;2.50;2.03;;;21.50;99.90;;;;;;5069110;28;20487;-84
2021/08/03 10:52:52;;;;;;;2.33;2.13;;;21.20;99.90;;;;;;5093741;28;20901;-84
2021/08/03 10:55:34;;;;;;;3.43;2.50;;;21.30;99.90;;;;;;5053841;28;20449;-84
2021/08/03 10:58:21;;;;;;;2.80;2.60;;;21.30;99.90;;;;;;5085039;28;20417;-84
2021/08/03 11:00:53;;;;;;;2.67;2.20;;;21.50;99.90;;;;;;5091847;28;20460;-86
2021/08/03 11:03:41;;;;;;;2.63;2.43;;;21.10;99.90;;;;;;5081937;28;20857;-85
2021/08/03 11:06:32;;;;;;;2.83;2.53;;;21.30;99.90;;;;;;5099548;28;20427;-85
2021/08/03 11:08:59;;;;;;;3.40;2.97;;;21.30;99.90;;;;;;5055128;28;20446;-85
2021/08/03 11:11:27;;;;;;;4.87;2.70;;;21.40;99.90;;;;;;5075756;28;20932;-85
2021/08/03 11:13:56;;;;;;;3.20;2.50;;;21.30;99.90;;;;;;5093435;28;20482;-85
2021/08/03 11:16:43;;;;;;;6.67;2.53;;;21.60;99.90;;;;;;5102461;28;20456;-84
2021/08/03 11:19:27;;;;;;;2.57;2.37;;;21.60;99.90;;;;;;5067714;28;20424;-84
2021/08/03 11:21:54;;;;;;;2.57;2.37;;;21.60;99.90;;;;;;5069917;28;20451;-84
2021/08/03 11:24:37;;;;;;;3.13;2.93;;;21.50;99.90;;;;;;5099595;28;20413;-84
2021/08/03 11:27:04;;;;;;;3.20;2.60;;;21.60;99.90;;;;;;5094968;28;20180;-84
2021/08/03 11:29:35;;;;;;;2.83;2.63;;;21.50;99.90;;;;;;5091907;28;20449;-83
2021/08/03 11:32:04;;;;;;;2.80;2.50;;;21.40;99.90;;;;;;5079180;28;20432;-84
2021/08/03 11:34:33;;;;;;;2.23;2.10;;;21.60;99.90;;;;;;5100734;28;20865;-84
2021/08/03 11:37:03;;;;;;;2.07;1.97;;;21.60;99.90;;;;;;5083893;28;20432;-84
2021/08/03 11:39:42;;;;;;;5.93;2.80;;;21.70;99.90;;;;;;5065486;28;20425;-84
2021/08/03 11:42:41;;;;;;;3.57;2.13;;;21.80;99.90;;;;;;5086978;28;20424;-85
2021/08/03 11:45:13;;;;;;;2.57;2.30;;;21.80;99.90;;;;;;5057326;28;20453;-84
2021/08/03 11:47:44;;;;;;;2.50;2.30;;;22.00;99.90;;;;;;5042187;28;20481;-84
2021/08/03 11:50:10;;;;;;;3.20;2.33;;;22.10;99.90;;;;;;5058732;28;20419;-83
2021/08/03 11:52:36;;;;;;;2.40;2.20;;;22.00;99.90;;;;;;5033616;28;20904;-84
2021/08/03 11:55:02;;;;;;;2.67;2.47;;;21.70;99.90;;;;;;5050525;28;20493;-84
2021/08/03 11:57:31;;;;;;;2.30;2.10;;;21.70;99.90;;;;;;5056889;28;20164;-85
2021/08/03 11:59:59;;;;;;;4.43;2.30;;;21.50;99.90;;;;;;5055734;28;20426;-84
2021/08/03 12:02:25;;;;;;;2.60;2.40;;;21.40;99.90;;;;;;5056606;28;20835;-84
2021/08/03 12:05:04;;;;;;;4.80;2.50;;;21.40;99.90;;;;;;5031080;28;20431;-83
2021/08/03 12:07:30;;;;;;;2.77;2.53;;;21.30;99.90;;;;;;5042420;28;20188;-84
2021/08/03 12:09:55;;;;;;;3.03;2.73;;;21.30;99.90;;;;;;5046254;28;20454;-84
2021/08/03 12:12:21;;;;;;;8.30;2.60;;;21.30;99.90;;;;;;5032232;28;20179;-84
2021/08/03 12:14:46;;;;;;;3.90;2.70;;;21.40;99.90;;;;;;5042276;28;20319;-84
2021/08/03 12:17:28;;;;;;;3.03;2.00;;;21.20;99.90;;;;;;5096640;28;20167;-84
2021/08/03 12:20:01;;;;;;;1.60;1.50;;;21.30;99.90;;;;;;5111285;28;20282;-82
2021/08/03 12:22:27;;;;;;;1.70;1.60;;;21.00;99.90;;;;;;5111441;28;20472;-82
2021/08/03 12:24:57;;;;;;;3.63;2.13;;;20.00;99.90;;;;;;5096977;28;20425;-82
2021/08/03 12:27:22;;;;;;;3.53;1.50;;;19.40;99.90;;;;;;5103362;28;20436;-81
2021/08/03 12:29:48;;;;;;;2.23;1.60;;;19.00;99.90;;;;;;5101028;28;20416;-82
2021/08/03 12:32:38;;;;;;;3.30;1.77;;;18.60;99.90;;;;;;5111275;28;20216;-81
2021/08/03 12:35:12;;;;;;;2.53;1.67;;;18.30;99.90;;;;;;5110304;28;20196;-84
2021/08/03 12:37:38;;;;;;;3.70;2.47;;;18.20;99.90;;;;;;5111346;28;20416;-81
2021/08/03 12:40:26;;;;;;;3.83;1.90;;;17.90;99.90;;;;;;5092496;28;20390;-81
2021/08/03 12:42:53;;;;;;;4.40;1.73;;;18.00;99.90;;;;;;5098682;28;20220;-82
2021/08/03 12:45:20;;;;;;;3.97;2.80;;;18.10;99.90;;;;;;5112950;28;20438;-81
2021/08/03 12:48:02;;;;;;;2.03;1.90;;;18.20;99.90;;;;;;5117029;28;20424;-81
2021/08/03 12:50:46;;;;;;;4.50;2.50;;;18.20;99.90;;;;;;5098046;28;20393;-82
2021/08/03 12:53:25;;;;;;;4.50;2.80;;;18.50;99.90;;;;;;5077917;28;20425;-82
2021/08/03 12:55:55;;;;;;;3.00;1.80;;;18.80;99.90;;;;;;5095772;28;20584;-83
2021/08/03 12:58:42;;;;;;;2.53;1.60;;;18.90;99.90;;;;;;5099271;28;20433;-82
2021/08/03 13:01:09;;;;;;;3.10;1.90;;;19.30;99.90;;;;;;5110553;28;20436;-84